createdAt,value
2019-03-19T00:00:03.325Z,92.06
2019-03-19T00:01:03.372Z,91.50
2019-03-19T00:02:03.337Z,92.47
2019-03-19T00:03:03.311Z,91.53
2019-03-19T00:04:03.332Z,91.85
2019-03-19T00:05:03.283Z,91.33
2019-03-19T00:06:03.286Z,91.39
2019-03-19T00:07:03.288Z,91.43
2019-03-19T00:08:03.284Z,91.96
2019-03-19T00:09:03.259Z,92.37
2019-03-19T00:10:03.269Z,92.06
2019-03-19T00:11:03.245Z,91.68
2019-03-19T00:12:03.234Z,92.06
2019-03-19T00:13:03.226Z,92.62
2019-03-19T00:14:03.213Z,92.62
2019-03-19T00:15:03.820Z,92.31
2019-03-19T00:16:03.148Z,92.77
2019-03-19T00:17:03.180Z,92.35
2019-03-19T00:18:03.167Z,93.08
2019-03-19T00:19:03.184Z,93.35
2019-03-19T00:20:03.114Z,93.24
2019-03-19T00:21:03.097Z,92.79
2019-03-19T00:22:03.125Z,93.24
2019-03-19T00:23:03.074Z,92.16
2019-03-19T00:24:03.115Z,91.96
2019-03-19T00:25:03.125Z,92.16
2019-03-19T00:26:03.053Z,92.52
2019-03-19T00:27:03.054Z,92.21
2019-03-19T00:28:03.037Z,92.10
2019-03-19T00:29:03.041Z,92.52
2019-03-19T00:30:03.052Z,92.31
2019-03-19T00:31:03.018Z,92.10
2019-03-19T00:32:02.983Z,92.52
2019-03-19T00:33:02.974Z,92.21
2019-03-19T00:34:02.969Z,92.62
2019-03-19T00:35:03.011Z,91.93
2019-03-19T00:36:02.929Z,91.93
2019-03-19T00:37:02.970Z,91.72
2019-03-19T00:38:02.907Z,92.60
2019-03-19T00:39:02.904Z,92.40
2019-03-19T00:40:02.932Z,92.50
2019-03-19T00:41:02.891Z,93.37
2019-03-19T00:42:02.866Z,93.37
2019-03-19T00:43:02.866Z,93.27
2019-03-19T00:44:02.856Z,94.04
2019-03-19T00:45:02.860Z,93.90
2019-03-19T00:46:02.845Z,93.77
2019-03-19T00:47:02.817Z,94.09
2019-03-19T00:48:02.815Z,93.98
2019-03-19T00:49:02.824Z,93.67
2019-03-19T00:50:02.861Z,94.09
2019-03-19T00:51:02.782Z,94.13
2019-03-19T00:52:02.781Z,94.02
2019-03-19T00:53:02.766Z,93.92
2019-03-19T00:54:02.762Z,94.82
2019-03-19T00:55:02.807Z,95.38
2019-03-19T00:56:02.768Z,95.86
2019-03-19T00:57:02.713Z,96.07
2019-03-19T00:58:02.732Z,97.01
2019-03-19T00:59:02.679Z,96.38
2019-03-19T01:00:02.787Z,96.28
2019-03-19T01:01:02.679Z,96.22
2019-03-19T01:02:02.649Z,95.90
2019-03-19T01:03:02.634Z,95.59
2019-03-19T01:04:02.649Z,95.90
2019-03-19T01:05:02.622Z,96.74
2019-03-19T01:06:02.669Z,96.64
2019-03-19T01:08:11.807Z,97.38
2019-03-19T01:09:12.807Z,97.49
2019-03-19T01:10:12.803Z,97.65
2019-03-19T01:11:12.770Z,97.44
2019-03-19T01:12:12.761Z,97.34
2019-03-19T01:13:12.741Z,97.13
2019-03-19T01:14:12.712Z,97.13
2019-03-19T01:15:12.740Z,97.97
2019-03-19T01:16:12.691Z,97.19
2019-03-19T01:17:12.698Z,96.77
2019-03-19T01:18:12.671Z,96.52
2019-03-19T01:19:12.694Z,95.79
2019-03-19T01:20:12.674Z,95.58
2019-03-19T01:21:12.659Z,95.52
2019-03-19T01:22:12.627Z,95.17
2019-03-19T01:23:12.621Z,95.27
2019-03-19T01:24:12.626Z,94.69
2019-03-19T01:25:12.604Z,95.00
2019-03-19T01:26:12.617Z,94.27
2019-03-19T01:27:12.580Z,93.90
2019-03-19T01:28:12.581Z,93.79
2019-03-19T01:29:12.572Z,93.84
2019-03-19T01:30:12.549Z,93.31
2019-03-19T01:31:12.560Z,93.15
2019-03-19T01:32:12.513Z,92.98
2019-03-19T01:33:12.520Z,93.29
2019-03-19T01:34:12.492Z,93.19
2019-03-19T01:35:12.512Z,93.02
2019-03-19T01:36:12.516Z,93.44
2019-03-19T01:37:12.468Z,94.74
2019-03-19T01:38:12.479Z,95.84
2019-03-19T01:39:12.447Z,97.27
2019-03-19T01:40:12.435Z,97.85
2019-03-19T01:41:12.446Z,97.43
2019-03-19T01:42:12.414Z,97.37
2019-03-19T01:43:12.644Z,97.05
2019-03-19T01:44:12.388Z,97.05
2019-03-19T01:45:12.379Z,96.53
2019-03-19T01:46:12.428Z,96.78
2019-03-19T01:47:12.363Z,96.68
2019-03-19T01:48:12.374Z,96.78
2019-03-19T01:49:12.326Z,96.62
2019-03-19T01:50:12.319Z,96.72
2019-03-19T01:51:12.353Z,97.14
2019-03-19T01:52:12.307Z,96.77
2019-03-19T01:53:12.288Z,96.77
2019-03-19T01:54:12.275Z,96.98
2019-03-19T01:55:12.273Z,96.77
2019-03-19T01:56:12.265Z,97.50
2019-03-19T01:57:12.237Z,97.61
2019-03-19T01:58:12.235Z,97.71
2019-03-19T01:59:12.226Z,98.35
2019-03-19T02:00:12.204Z,99.04
2019-03-19T02:01:12.207Z,98.68
2019-03-19T02:02:12.177Z,98.99
2019-03-19T02:03:12.200Z,99.10
2019-03-19T02:04:12.162Z,98.99
2019-03-19T02:05:12.156Z,98.99
2019-03-19T02:06:12.560Z,99.05
2019-03-19T02:07:12.170Z,98.74
2019-03-19T02:08:12.117Z,98.32
2019-03-19T02:09:12.126Z,98.01
2019-03-19T02:10:12.118Z,98.28
2019-03-19T02:11:12.106Z,98.59
2019-03-19T02:12:12.072Z,97.70
2019-03-19T02:13:12.067Z,97.70
2019-03-19T02:14:12.041Z,97.38
2019-03-19T02:15:12.041Z,97.22
2019-03-19T02:16:12.038Z,97.11
2019-03-19T02:17:12.794Z,97.22
2019-03-19T02:18:12.000Z,97.78
2019-03-19T02:19:11.993Z,97.74
2019-03-19T02:20:11.980Z,97.58
2019-03-19T02:21:11.991Z,97.47
2019-03-19T02:22:11.969Z,97.68
2019-03-19T02:23:11.949Z,97.41
2019-03-19T02:24:11.945Z,97.41
2019-03-19T02:25:11.933Z,97.77
2019-03-19T02:26:16.311Z,98.08
2019-03-19T02:27:11.908Z,97.77
2019-03-19T02:28:11.906Z,97.98
2019-03-19T02:29:11.892Z,98.19
2019-03-19T02:30:11.872Z,97.71
2019-03-19T02:31:11.890Z,97.61
2019-03-19T02:32:11.871Z,98.07
2019-03-19T02:33:11.848Z,97.96
2019-03-19T02:34:11.861Z,97.86
2019-03-19T02:35:11.852Z,98.07
2019-03-19T02:36:11.838Z,98.18
2019-03-19T02:37:11.806Z,98.80
2019-03-19T02:38:11.800Z,99.28
2019-03-19T02:39:11.775Z,99.99
2019-03-19T02:40:11.807Z,99.96
2019-03-19T02:41:11.780Z,99.61
2019-03-19T02:42:11.771Z,99.77
2019-03-19T02:43:11.762Z,99.99
2019-03-19T02:44:11.753Z,99.15
2019-03-19T02:45:11.718Z,99.29
2019-03-19T02:46:11.728Z,99.19
2019-03-19T02:47:11.706Z,99.08
2019-03-19T02:48:11.689Z,98.92
2019-03-19T02:49:11.682Z,99.34
2019-03-19T02:50:11.660Z,99.13
2019-03-19T02:51:11.676Z,99.44
2019-03-19T02:52:11.639Z,99.28
2019-03-19T02:53:11.633Z,99.99
2019-03-19T02:54:11.617Z,98.97
2019-03-19T02:55:11.610Z,99.59
2019-03-19T02:56:11.627Z,99.99
2019-03-19T02:57:11.591Z,99.91
2019-03-19T02:58:11.575Z,99.91
2019-03-19T03:02:10.205Z,99.99
2019-03-19T03:03:11.203Z,99.99
2019-03-19T03:04:11.155Z,99.99
2019-03-19T03:05:11.141Z,99.99
2019-03-19T03:06:11.152Z,99.99
2019-03-19T03:07:11.150Z,99.99
2019-03-19T03:08:11.110Z,99.99
2019-03-19T03:09:11.124Z,99.99
2019-03-19T03:10:11.096Z,99.99
2019-03-19T03:11:11.092Z,99.99
2019-03-19T03:12:11.247Z,99.99
2019-03-19T03:13:11.069Z,99.99
2019-03-19T03:14:11.059Z,99.99
2019-03-19T03:15:11.061Z,99.99
2019-03-19T03:16:11.029Z,99.99
2019-03-19T03:17:11.040Z,99.99
2019-03-19T03:18:11.014Z,99.99
2019-03-19T03:19:11.005Z,99.99
2019-03-19T03:20:10.995Z,99.99
2019-03-19T03:21:10.985Z,99.99
2019-03-19T03:22:10.979Z,99.99
2019-03-19T03:23:10.958Z,99.74
2019-03-19T03:24:10.950Z,99.74
2019-03-19T03:25:10.955Z,99.99
2019-03-19T03:26:10.933Z,99.90
2019-03-19T03:27:10.926Z,99.58
2019-03-19T03:28:10.898Z,99.99
2019-03-19T03:29:10.900Z,99.99
2019-03-19T03:30:10.885Z,99.99
2019-03-19T03:31:10.885Z,99.99
2019-03-19T03:34:47.618Z,99.99
2019-03-19T03:35:48.603Z,99.99
2019-03-19T03:36:49.473Z,99.99
2019-03-19T03:37:49.481Z,99.99
2019-03-19T03:38:48.554Z,99.99
2019-03-19T03:39:48.532Z,99.99
2019-03-19T03:40:48.544Z,99.99
2019-03-19T03:41:48.530Z,99.99
2019-03-19T03:42:48.509Z,99.99
2019-03-19T03:43:48.501Z,99.99
2019-03-19T03:44:48.491Z,99.99
2019-03-19T03:45:48.490Z,99.99
2019-03-19T03:46:48.479Z,99.99
2019-03-19T03:47:48.546Z,99.99
2019-03-19T03:48:48.456Z,99.99
2019-03-19T03:49:48.431Z,99.99
2019-03-19T03:50:48.430Z,99.99
2019-03-19T03:51:48.411Z,99.99
2019-03-19T03:52:48.479Z,99.99
2019-03-19T03:53:48.395Z,99.99
2019-03-19T03:54:48.382Z,99.99
2019-03-19T03:55:48.399Z,99.99
2019-03-19T03:57:01.155Z,99.99
2019-03-19T03:57:48.374Z,99.99
2019-03-19T03:58:59.818Z,99.99
2019-03-19T03:59:48.323Z,99.99
2019-03-19T04:00:48.311Z,99.99
2019-03-19T04:01:48.310Z,99.99
2019-03-19T04:02:48.308Z,99.99
2019-03-19T04:03:48.305Z,99.99
2019-03-19T04:04:48.289Z,99.99
2019-03-19T04:05:48.251Z,99.99
2019-03-19T04:06:48.258Z,99.99
2019-03-19T04:07:48.249Z,99.99
2019-03-19T04:08:48.253Z,99.99
2019-03-19T04:09:48.214Z,99.99
2019-03-19T04:10:48.214Z,99.99
2019-03-19T04:11:48.216Z,99.99
2019-03-19T04:12:48.186Z,99.99
2019-03-19T04:13:48.197Z,99.99
2019-03-19T04:14:48.170Z,99.99
2019-03-19T04:15:48.150Z,99.99
2019-03-19T04:16:48.139Z,99.99
2019-03-19T04:17:48.135Z,99.99
2019-03-19T04:18:48.141Z,99.99
2019-03-19T04:19:48.106Z,99.99
2019-03-19T04:20:48.095Z,99.99
2019-03-19T04:21:48.100Z,99.99
2019-03-19T04:25:57.650Z,99.99
2019-03-19T04:26:58.619Z,99.99
2019-03-19T04:27:58.622Z,99.99
2019-03-19T04:28:58.633Z,99.99
2019-03-19T04:29:58.596Z,99.99
2019-03-19T04:30:58.581Z,99.99
2019-03-19T04:31:58.613Z,99.99
2019-03-19T04:32:58.574Z,99.99
2019-03-19T04:33:58.583Z,99.99
2019-03-19T04:34:58.538Z,99.99
2019-03-19T04:35:58.577Z,99.99
2019-03-19T04:36:59.258Z,99.99
2019-03-19T04:40:46.211Z,99.99
2019-03-19T04:45:18.662Z,99.99
2019-03-19T04:46:19.629Z,99.99
2019-03-19T04:47:19.616Z,99.99
2019-03-19T04:48:19.622Z,99.99
2019-03-19T04:49:19.615Z,99.99
2019-03-19T04:50:19.575Z,99.99
2019-03-19T04:51:19.568Z,99.99
2019-03-19T04:52:19.563Z,99.99
2019-03-19T04:53:19.552Z,99.99
2019-03-19T04:54:19.568Z,99.99
2019-03-19T04:55:19.536Z,99.99
2019-03-19T04:56:19.532Z,99.99
2019-03-19T04:57:26.863Z,99.99
2019-03-19T04:58:19.506Z,99.99
2019-03-19T04:59:19.513Z,99.99
2019-03-19T05:00:19.485Z,99.99
2019-03-19T05:01:19.488Z,99.99
2019-03-19T05:02:19.464Z,99.99
2019-03-19T05:03:19.449Z,99.99
2019-03-19T05:04:19.458Z,99.99
2019-03-19T05:05:19.435Z,99.99
2019-03-19T05:06:19.449Z,99.99
2019-03-19T05:07:19.406Z,99.99
2019-03-19T05:08:19.404Z,99.99
2019-03-19T05:09:19.423Z,99.99
2019-03-19T05:10:19.373Z,99.99
2019-03-19T05:11:19.370Z,99.99
2019-03-19T05:12:19.361Z,99.99
2019-03-19T05:13:19.346Z,99.99
2019-03-19T05:14:19.363Z,99.99
2019-03-19T05:15:19.342Z,99.99
2019-03-19T05:16:19.306Z,99.99
2019-03-19T05:17:19.297Z,99.99
2019-03-19T05:18:19.297Z,99.99
2019-03-19T05:19:19.295Z,99.99
2019-03-19T05:20:19.278Z,99.99
2019-03-19T05:21:19.253Z,99.99
2019-03-19T05:22:19.243Z,99.99
2019-03-19T05:23:19.231Z,99.99
2019-03-19T05:24:19.241Z,99.99
2019-03-19T05:25:19.221Z,99.99
2019-03-19T05:26:19.214Z,99.99
2019-03-19T05:27:19.211Z,99.99
2019-03-19T05:28:19.193Z,99.99
2019-03-19T05:29:19.207Z,99.99
2019-03-19T05:30:19.168Z,99.99
2019-03-19T05:31:19.155Z,99.99
2019-03-19T05:32:19.141Z,99.99
2019-03-19T05:33:19.642Z,99.99
2019-03-19T05:34:19.146Z,99.99
2019-03-19T05:35:19.126Z,99.99
2019-03-19T05:36:19.112Z,99.99
2019-03-19T05:37:19.122Z,99.99
2019-03-19T05:38:19.091Z,99.99
2019-03-19T05:39:19.107Z,99.99
2019-03-19T05:40:19.066Z,99.99
2019-03-19T05:41:19.079Z,99.99
2019-03-19T05:42:19.043Z,99.99
2019-03-19T05:43:19.034Z,99.99
2019-03-19T05:44:19.036Z,99.99
2019-03-19T05:45:19.035Z,99.99
2019-03-19T05:46:18.998Z,99.99
2019-03-19T05:47:18.986Z,99.99
2019-03-19T05:48:18.983Z,99.99
2019-03-19T05:49:18.998Z,99.99
2019-03-19T05:50:18.958Z,99.99
2019-03-19T05:51:18.957Z,99.99
2019-03-19T05:52:18.944Z,99.99
2019-03-19T05:53:18.924Z,99.99
2019-03-19T05:54:18.934Z,99.99
2019-03-19T05:55:18.917Z,99.99
2019-03-19T05:56:18.895Z,99.99
2019-03-19T05:57:18.882Z,99.99
2019-03-19T05:58:18.878Z,99.99
2019-03-19T05:59:18.879Z,99.99
2019-03-19T06:00:18.903Z,99.99
2019-03-19T06:01:18.854Z,99.99
2019-03-19T06:02:18.835Z,99.99
2019-03-19T06:03:18.823Z,99.99
2019-03-19T06:04:18.805Z,99.99
2019-03-19T06:05:20.936Z,99.99
2019-03-19T06:06:18.787Z,99.99
2019-03-19T06:07:18.803Z,99.99
2019-03-19T06:08:18.764Z,99.99
2019-03-19T06:09:18.758Z,99.99
2019-03-19T06:10:18.784Z,99.99
2019-03-19T06:11:18.742Z,99.99
2019-03-19T06:12:18.718Z,99.99
2019-03-19T06:13:18.717Z,99.99
2019-03-19T06:14:18.699Z,99.99
2019-03-19T06:15:18.708Z,99.99
2019-03-19T06:16:18.683Z,99.99
2019-03-19T06:17:18.673Z,99.99
2019-03-19T06:18:18.651Z,99.99
2019-03-19T06:19:18.677Z,99.99
2019-03-19T06:20:18.654Z,99.99
2019-03-19T06:21:18.716Z,99.99
2019-03-19T06:22:18.625Z,99.99
2019-03-19T06:23:18.599Z,99.99
2019-03-19T06:24:18.597Z,99.99
2019-03-19T06:25:18.596Z,99.99
2019-03-19T06:26:18.576Z,99.99
2019-03-19T06:27:18.564Z,99.99
2019-03-19T06:28:18.558Z,99.99
2019-03-19T06:29:18.554Z,99.99
2019-03-19T06:30:18.551Z,99.99
2019-03-19T06:31:18.533Z,99.99
2019-03-19T06:32:18.504Z,99.99
2019-03-19T06:33:18.487Z,99.99
2019-03-19T06:34:18.481Z,99.99
2019-03-19T06:35:18.492Z,99.99
2019-03-19T06:36:18.462Z,99.99
2019-03-19T06:37:18.458Z,99.99
2019-03-19T06:38:18.494Z,99.99
2019-03-19T06:39:18.427Z,99.99
2019-03-19T06:40:18.434Z,99.99
2019-03-19T06:41:18.424Z,99.99
2019-03-19T06:42:18.399Z,99.99
2019-03-19T06:43:18.392Z,99.99
2019-03-19T06:44:18.372Z,99.99
2019-03-19T06:46:27.710Z,99.99
2019-03-19T06:47:28.662Z,99.99
2019-03-19T06:48:28.626Z,99.99
2019-03-19T06:49:28.616Z,99.99
2019-03-19T06:50:28.628Z,99.99
2019-03-19T06:51:28.605Z,99.99
2019-03-19T06:52:28.603Z,99.99
2019-03-19T06:53:28.626Z,99.99
2019-03-19T06:54:28.562Z,99.99
2019-03-19T06:55:28.559Z,99.99
2019-03-19T06:56:28.569Z,99.99
2019-03-19T06:57:38.712Z,99.99
2019-03-19T06:58:28.518Z,99.99
2019-03-19T06:59:28.512Z,99.99
2019-03-19T07:00:28.581Z,99.99
2019-03-19T07:01:28.495Z,99.99
2019-03-19T07:02:28.641Z,99.99
2019-03-19T07:03:28.468Z,99.99
2019-03-19T07:04:28.454Z,99.99
2019-03-19T07:05:28.451Z,99.99
2019-03-19T07:06:29.297Z,99.99
2019-03-19T07:07:28.446Z,99.99
2019-03-19T07:08:28.412Z,99.99
2019-03-19T07:09:28.405Z,99.99
2019-03-19T07:10:29.369Z,99.99
2019-03-19T07:11:28.436Z,99.17
2019-03-19T07:12:28.432Z,99.27
2019-03-19T07:13:28.389Z,99.44
2019-03-19T07:14:28.365Z,99.44
2019-03-19T07:15:28.353Z,99.40
2019-03-19T07:16:29.837Z,99.60
2019-03-19T07:17:28.337Z,99.60
2019-03-19T07:18:29.344Z,99.24
2019-03-19T07:19:28.321Z,99.35
2019-03-19T07:20:28.324Z,99.35
2019-03-19T07:21:28.323Z,98.83
2019-03-19T07:22:28.332Z,98.62
2019-03-19T07:23:28.320Z,98.56
2019-03-19T07:24:28.376Z,98.10
2019-03-19T07:25:28.285Z,97.78
2019-03-19T07:26:28.230Z,98.20
2019-03-19T07:27:28.217Z,98.20
2019-03-19T07:28:28.234Z,97.68
2019-03-19T07:29:28.194Z,97.78
2019-03-19T07:30:28.252Z,96.95
2019-03-19T07:31:31.092Z,97.06
2019-03-19T07:32:28.158Z,97.78
2019-03-19T07:33:29.188Z,97.01
2019-03-19T07:34:28.147Z,96.18
2019-03-19T07:35:28.171Z,96.18
2019-03-19T07:36:28.123Z,95.66
2019-03-19T07:37:28.125Z,95.40
2019-03-19T07:38:28.115Z,95.83
2019-03-19T07:39:28.139Z,94.93
2019-03-19T07:40:28.083Z,94.82
2019-03-19T07:41:28.096Z,94.78
2019-03-19T07:42:28.041Z,94.89
2019-03-19T07:43:28.081Z,95.05
2019-03-19T07:44:28.040Z,95.05
2019-03-19T07:45:28.042Z,94.84
2019-03-19T07:46:28.039Z,94.49
2019-03-19T07:47:28.012Z,93.39
2019-03-19T07:48:28.025Z,93.39
2019-03-19T07:49:27.990Z,93.24
2019-03-19T07:50:27.989Z,93.14
2019-03-19T07:51:28.165Z,92.82
2019-03-19T07:52:27.952Z,92.68
2019-03-19T07:53:28.037Z,93.30
2019-03-19T07:54:27.921Z,92.88
2019-03-19T07:55:27.949Z,92.22
2019-03-19T07:56:27.916Z,92.22
2019-03-19T07:57:29.556Z,91.49
2019-03-19T07:58:35.756Z,90.87
2019-03-19T07:59:27.892Z,91.03
2019-03-19T08:00:27.873Z,90.62
2019-03-19T08:01:29.232Z,90.20
2019-03-19T08:02:27.826Z,89.96
2019-03-19T08:03:27.812Z,90.20
2019-03-19T08:04:27.874Z,90.00
2019-03-19T08:05:32.931Z,90.10
2019-03-19T08:06:27.830Z,90.31
2019-03-19T08:07:27.798Z,89.89
2019-03-19T08:08:27.774Z,90.00
2019-03-19T08:09:27.867Z,90.00
2019-03-19T08:10:27.741Z,90.06
2019-03-19T08:11:27.760Z,89.65
2019-03-19T08:12:27.718Z,89.65
2019-03-19T08:13:27.718Z,89.29
2019-03-19T08:14:27.699Z,88.98
2019-03-19T08:15:27.688Z,89.13
2019-03-19T08:16:27.888Z,88.92
2019-03-19T08:17:27.682Z,88.92
2019-03-19T08:18:27.665Z,88.98
2019-03-19T08:19:27.654Z,89.29
2019-03-19T08:20:27.641Z,88.67
2019-03-19T08:21:27.656Z,88.88
2019-03-19T08:22:27.612Z,88.21
2019-03-19T08:23:27.610Z,88.78
2019-03-19T08:24:27.599Z,89.15
2019-03-19T08:25:27.582Z,88.57
2019-03-19T08:26:27.599Z,88.98
2019-03-19T08:27:27.558Z,88.73
2019-03-19T08:28:27.601Z,89.15
2019-03-19T08:29:27.573Z,89.19
2019-03-19T08:30:27.531Z,88.73
2019-03-19T08:31:27.529Z,88.84
2019-03-19T08:32:27.512Z,88.79
2019-03-19T08:33:27.503Z,88.07
2019-03-19T08:34:27.497Z,88.13
2019-03-19T08:35:27.477Z,88.13
2019-03-19T08:36:28.403Z,87.06
2019-03-19T08:37:27.489Z,86.60
2019-03-19T08:38:27.475Z,87.33
2019-03-19T08:39:27.595Z,86.81
2019-03-19T08:40:27.429Z,85.88
2019-03-19T08:41:27.429Z,85.78
2019-03-19T08:42:27.391Z,86.85
2019-03-19T08:43:27.381Z,86.65
2019-03-19T08:44:28.099Z,87.54
2019-03-19T08:45:27.379Z,86.65
2019-03-19T08:47:38.542Z,87.47
2019-03-19T08:48:38.949Z,87.06
2019-03-19T08:49:38.978Z,86.75
2019-03-19T08:50:39.038Z,86.60
2019-03-19T08:51:39.426Z,86.25
2019-03-19T08:52:39.076Z,86.52
2019-03-19T08:53:38.887Z,86.28
2019-03-19T08:54:38.828Z,84.66
2019-03-19T08:55:38.939Z,84.19
2019-03-19T08:56:39.125Z,85.22
2019-03-19T08:57:39.057Z,85.99
2019-03-19T08:58:38.792Z,86.44
2019-03-19T08:59:38.787Z,86.40
2019-03-19T09:00:38.763Z,87.23
2019-03-19T09:01:38.777Z,87.18
2019-03-19T09:02:39.042Z,86.52
2019-03-19T09:03:39.060Z,85.55
2019-03-19T09:04:38.747Z,85.97
2019-03-19T09:05:38.703Z,86.03
2019-03-19T09:06:38.730Z,84.42
2019-03-19T09:07:38.710Z,83.84
2019-03-19T09:08:38.694Z,86.21
2019-03-19T09:09:38.673Z,86.63
2019-03-19T09:10:38.643Z,86.49
2019-03-19T09:11:38.681Z,84.59
2019-03-19T09:12:38.639Z,84.17
2019-03-19T09:13:38.613Z,84.73
2019-03-19T09:14:38.622Z,84.83
2019-03-19T09:15:38.595Z,84.59
2019-03-19T09:16:38.605Z,84.42
2019-03-19T09:17:38.574Z,84.17
2019-03-19T09:18:38.598Z,83.97
2019-03-19T09:19:38.553Z,84.69
2019-03-19T09:20:38.551Z,84.07
2019-03-19T09:21:38.622Z,83.80
2019-03-19T09:22:38.530Z,84.28
2019-03-19T09:23:39.293Z,84.38
2019-03-19T09:24:38.523Z,83.83
2019-03-19T09:25:38.491Z,83.93
2019-03-19T09:26:38.476Z,82.75
2019-03-19T09:27:38.485Z,82.59
2019-03-19T09:28:39.294Z,83.10
2019-03-19T09:29:38.441Z,83.10
2019-03-19T09:30:38.484Z,82.55
2019-03-19T09:31:38.417Z,82.96
2019-03-19T09:32:38.430Z,81.79
2019-03-19T09:33:38.409Z,82.03
2019-03-19T09:34:38.426Z,81.00
2019-03-19T09:35:38.434Z,81.82
2019-03-19T09:36:38.382Z,82.24
2019-03-19T09:37:44.484Z,81.93
2019-03-19T09:38:38.386Z,82.61
2019-03-19T09:39:38.358Z,81.79
2019-03-19T09:40:38.339Z,80.79
2019-03-19T09:41:38.342Z,81.82
2019-03-19T09:42:38.382Z,81.82
2019-03-19T09:43:38.300Z,80.79
2019-03-19T09:44:38.287Z,81.10
2019-03-19T09:45:38.293Z,81.00
2019-03-19T09:46:38.274Z,80.38
2019-03-19T09:47:38.623Z,80.48
2019-03-19T09:48:38.243Z,80.55
2019-03-19T09:49:38.236Z,79.55
2019-03-19T09:50:38.221Z,80.18
2019-03-19T09:51:38.229Z,80.44
2019-03-19T09:52:38.434Z,80.14
2019-03-19T09:53:38.192Z,80.10
2019-03-19T09:54:38.201Z,78.97
2019-03-19T09:55:38.230Z,78.41
2019-03-19T09:56:38.228Z,78.07
2019-03-19T09:57:38.172Z,76.87
2019-03-19T09:58:38.162Z,76.90
2019-03-19T09:59:38.427Z,78.66
2019-03-19T10:00:38.121Z,79.55
2019-03-19T10:01:38.151Z,78.52
2019-03-19T10:02:38.870Z,77.08
2019-03-19T10:03:38.082Z,76.97
2019-03-19T10:04:38.350Z,76.08
2019-03-19T10:05:38.438Z,76.59
2019-03-19T10:06:39.556Z,76.59
2019-03-19T10:07:38.051Z,75.70
2019-03-19T10:08:38.033Z,73.74
2019-03-19T10:09:38.033Z,72.44
2019-03-19T10:10:38.363Z,72.92
2019-03-19T10:11:38.246Z,73.23
2019-03-19T10:12:38.153Z,73.95
2019-03-19T10:13:37.960Z,74.33
2019-03-19T10:14:37.995Z,73.74
2019-03-19T10:15:38.226Z,74.71
2019-03-19T10:16:38.054Z,74.71
2019-03-19T10:17:38.076Z,74.80
2019-03-19T10:18:37.926Z,75.22
2019-03-19T10:19:37.978Z,75.15
2019-03-19T10:20:37.913Z,75.53
2019-03-19T10:21:37.932Z,74.19
2019-03-19T10:22:37.915Z,72.96
2019-03-19T10:23:38.046Z,73.36
2019-03-19T10:24:37.862Z,73.57
2019-03-19T10:25:38.186Z,73.98
2019-03-19T10:26:38.199Z,73.88
2019-03-19T10:27:38.367Z,74.08
2019-03-19T10:28:37.885Z,74.26
2019-03-19T10:29:38.777Z,73.40
2019-03-19T10:30:37.832Z,71.96
2019-03-19T10:31:38.066Z,70.93
2019-03-19T10:32:38.707Z,71.75
2019-03-19T10:33:37.797Z,70.00
2019-03-19T10:34:37.744Z,69.35
2019-03-19T10:35:37.726Z,69.25
2019-03-19T10:36:37.757Z,67.50
2019-03-19T10:37:37.803Z,67.19
2019-03-19T10:38:37.738Z,67.91
2019-03-19T10:39:38.281Z,68.32
2019-03-19T10:40:37.690Z,66.37
2019-03-19T10:41:38.086Z,66.78
2019-03-19T10:42:37.668Z,67.71
2019-03-19T10:43:37.755Z,68.02
2019-03-19T10:44:37.637Z,66.94
2019-03-19T10:45:37.634Z,67.46
2019-03-19T10:46:37.621Z,66.22
2019-03-19T10:48:46.454Z,66.84
2019-03-19T10:49:47.409Z,66.71
2019-03-19T10:50:47.418Z,67.02
2019-03-19T10:51:47.418Z,67.12
2019-03-19T10:52:47.475Z,67.63
2019-03-19T10:53:47.373Z,66.19
2019-03-19T10:54:47.411Z,66.43
2019-03-19T10:55:47.336Z,66.74
2019-03-19T10:56:47.319Z,67.25
2019-03-19T10:57:47.333Z,67.70
2019-03-19T10:58:47.338Z,68.42
2019-03-19T10:59:49.388Z,69.04
2019-03-19T11:00:47.287Z,69.76
2019-03-19T11:01:47.283Z,69.52
2019-03-19T11:02:47.308Z,69.62
2019-03-19T11:03:47.314Z,70.31
2019-03-19T11:04:47.251Z,67.84
2019-03-19T11:05:47.225Z,66.91
2019-03-19T11:06:47.240Z,67.15
2019-03-19T11:07:47.240Z,67.74
2019-03-19T11:08:47.191Z,67.43
2019-03-19T11:09:47.186Z,68.53
2019-03-19T11:10:47.165Z,68.53
2019-03-19T11:11:47.158Z,68.77
2019-03-19T11:12:47.154Z,67.71
2019-03-19T11:13:47.143Z,67.13
2019-03-19T11:14:47.126Z,67.71
2019-03-19T11:15:47.111Z,68.10
2019-03-19T11:16:47.104Z,66.63
2019-03-19T11:17:47.168Z,66.76
2019-03-19T11:18:47.091Z,66.42
2019-03-19T11:19:47.081Z,66.42
2019-03-19T11:20:47.090Z,65.94
2019-03-19T11:21:47.077Z,66.55
2019-03-19T11:22:47.056Z,66.82
2019-03-19T11:23:47.307Z,67.54
2019-03-19T11:24:47.054Z,68.16
2019-03-19T11:25:54.437Z,68.57
2019-03-19T11:26:47.016Z,68.08
2019-03-19T11:27:47.055Z,67.78
2019-03-19T11:28:46.976Z,67.36
2019-03-19T11:29:46.957Z,66.82
2019-03-19T11:30:47.322Z,65.80
2019-03-19T11:31:47.209Z,65.48
2019-03-19T11:32:47.075Z,65.03
2019-03-19T11:33:47.880Z,65.62
2019-03-19T11:34:46.937Z,65.65
2019-03-19T11:35:46.928Z,65.72
2019-03-19T11:36:57.191Z,65.48
2019-03-19T11:37:46.885Z,64.53
2019-03-19T11:38:46.876Z,64.29
2019-03-19T11:39:46.856Z,62.41
2019-03-19T11:40:46.868Z,62.62
2019-03-19T11:41:46.834Z,62.01
2019-03-19T11:42:46.833Z,62.21
2019-03-19T11:43:46.816Z,62.77
2019-03-19T11:44:46.792Z,61.23
2019-03-19T11:45:46.776Z,62.29
2019-03-19T11:46:46.770Z,62.52
2019-03-19T11:47:47.566Z,62.59
2019-03-19T11:48:46.759Z,60.54
2019-03-19T11:49:46.730Z,59.64
2019-03-19T11:50:46.739Z,61.18
2019-03-19T11:51:46.711Z,60.08
2019-03-19T11:52:46.707Z,61.17
2019-03-19T11:53:46.709Z,61.37
2019-03-19T11:54:46.681Z,61.88
2019-03-19T11:55:46.665Z,61.07
2019-03-19T11:56:46.653Z,61.07
2019-03-19T11:57:46.651Z,59.91
2019-03-19T11:58:46.653Z,59.29
2019-03-19T11:59:46.633Z,58.87
2019-03-19T12:00:46.657Z,60.31
2019-03-19T12:01:46.611Z,60.93
2019-03-19T12:02:46.608Z,61.47
2019-03-19T12:03:46.579Z,61.04
2019-03-19T12:04:46.574Z,61.14
2019-03-19T12:05:46.553Z,60.93
2019-03-19T12:06:46.557Z,60.42
2019-03-19T12:07:46.561Z,60.55
2019-03-19T12:08:46.532Z,59.11
2019-03-19T12:09:46.517Z,60.21
2019-03-19T12:10:46.533Z,59.19
2019-03-19T12:11:46.487Z,59.91
2019-03-19T12:12:46.509Z,59.77
2019-03-19T12:13:46.464Z,59.26
2019-03-19T12:14:47.407Z,60.19
2019-03-19T12:15:46.461Z,59.13
2019-03-19T12:16:46.441Z,59.41
2019-03-19T12:17:48.728Z,59.38
2019-03-19T12:18:46.416Z,58.03
2019-03-19T12:19:46.434Z,58.46
2019-03-19T12:20:46.431Z,58.95
2019-03-19T12:21:46.394Z,58.20
2019-03-19T12:22:46.396Z,58.00
2019-03-19T12:23:46.391Z,58.74
2019-03-19T12:24:46.351Z,58.72
2019-03-19T12:25:46.338Z,55.72
2019-03-19T12:26:46.341Z,56.15
2019-03-19T12:27:46.329Z,57.84
2019-03-19T12:28:46.354Z,58.40
2019-03-19T12:29:46.296Z,56.69
2019-03-19T12:30:46.297Z,57.67
2019-03-19T12:31:46.283Z,58.36
2019-03-19T12:32:46.274Z,58.67
2019-03-19T12:33:46.243Z,57.95
2019-03-19T12:34:46.238Z,57.95
2019-03-19T12:35:46.229Z,58.07
2019-03-19T12:36:46.236Z,57.87
2019-03-19T12:37:46.226Z,59.62
2019-03-19T12:38:46.194Z,59.11
2019-03-19T12:39:46.207Z,59.31
2019-03-19T12:40:46.186Z,59.13
2019-03-19T12:41:48.442Z,58.80
2019-03-19T12:42:46.173Z,58.72
2019-03-19T12:43:46.134Z,59.34
2019-03-19T12:44:46.139Z,58.51
2019-03-19T12:45:46.113Z,59.44
2019-03-19T12:46:46.108Z,58.62
2019-03-19T12:47:46.115Z,59.82
2019-03-19T12:49:55.345Z,58.11
2019-03-19T12:50:56.282Z,57.62
2019-03-19T12:51:56.275Z,58.03
2019-03-19T12:52:56.293Z,58.00
2019-03-19T12:53:56.249Z,58.00
2019-03-19T12:54:56.231Z,56.95
2019-03-19T12:55:56.249Z,57.64
2019-03-19T12:56:56.209Z,56.20
2019-03-19T12:57:56.246Z,54.74
2019-03-19T12:58:56.201Z,54.74
2019-03-19T12:59:56.204Z,54.41
2019-03-19T13:00:56.195Z,55.00
2019-03-19T13:01:56.163Z,53.77
2019-03-19T13:02:56.173Z,54.41
2019-03-19T13:03:56.145Z,55.10
2019-03-19T13:04:56.130Z,53.95
2019-03-19T13:05:56.179Z,54.46
2019-03-19T13:06:56.103Z,54.28
2019-03-19T13:07:56.160Z,55.41
2019-03-19T13:08:56.094Z,54.64
2019-03-19T13:09:56.082Z,55.49
2019-03-19T13:10:56.060Z,54.87
2019-03-19T13:11:56.054Z,54.59
2019-03-19T13:12:56.058Z,55.72